createdAt,value
2023-05-16T00:01:27.966Z,13.33
2023-05-16T00:03:55.875Z,13.33
2023-05-16T00:06:24.142Z,13.32
2023-05-16T00:08:51.939Z,13.30
2023-05-16T00:11:22.246Z,13.29
2023-05-16T00:13:51.674Z,13.23
2023-05-16T00:16:22.112Z,13.24
2023-05-16T00:18:50.211Z,13.19
2023-05-16T00:21:18.349Z,13.18
2023-05-16T00:23:46.551Z,13.17
2023-05-16T00:26:14.456Z,13.17
2023-05-16T00:28:44.330Z,13.15
2023-05-16T00:31:12.409Z,13.13
2023-05-16T00:33:40.476Z,13.10
2023-05-16T00:36:08.915Z,13.11
2023-05-16T00:38:36.724Z,13.10
2023-05-16T00:41:04.608Z,13.09
2023-05-16T00:43:32.507Z,13.10
2023-05-16T00:46:02.708Z,13.08
2023-05-16T00:48:30.604Z,13.07
2023-05-16T00:50:58.699Z,13.05
2023-05-16T00:53:26.972Z,13.02
2023-05-16T00:55:55.208Z,13.01
2023-05-16T00:58:24.006Z,12.99
2023-05-16T01:00:51.927Z,12.98
2023-05-16T01:03:22.217Z,12.97
2023-05-16T01:05:51.284Z,12.97
2023-05-16T01:08:19.453Z,12.96
2023-05-16T01:10:54.767Z,12.97
2023-05-16T01:13:29.048Z,12.97
2023-05-16T01:16:05.996Z,12.96
2023-05-16T01:18:44.516Z,12.96
2023-05-16T01:21:17.637Z,12.87
2023-05-16T01:23:54.228Z,12.92
2023-05-16T01:26:27.254Z,12.93
2023-05-16T01:28:56.091Z,12.93
2023-05-16T01:31:24.731Z,12.92
2023-05-16T01:33:52.838Z,12.92
2023-05-16T01:36:26.728Z,12.92
2023-05-16T01:39:03.621Z,12.90
2023-05-16T01:41:42.301Z,12.88
2023-05-16T01:44:19.989Z,12.84
2023-05-16T01:46:49.414Z,12.76
2023-05-16T01:49:21.366Z,12.80
2023-05-16T01:51:52.796Z,12.76
2023-05-16T01:54:23.373Z,12.75
2023-05-16T01:56:54.570Z,12.73
2023-05-16T01:59:24.236Z,12.70
2023-05-16T02:01:55.225Z,12.69
2023-05-16T02:04:24.400Z,12.68
2023-05-16T02:06:52.876Z,12.61
2023-05-16T02:09:20.833Z,12.64
2023-05-16T02:11:48.956Z,12.63
2023-05-16T02:14:18.325Z,12.62
2023-05-16T02:16:46.393Z,12.60
2023-05-16T02:19:14.457Z,12.58
2023-05-16T02:21:42.287Z,12.57
2023-05-16T02:24:10.090Z,12.56
2023-05-16T02:26:38.190Z,12.56
2023-05-16T02:29:06.765Z,12.53
2023-05-16T02:31:36.283Z,12.52
2023-05-16T02:34:04.336Z,12.50
2023-05-16T02:36:32.162Z,12.48
2023-05-16T02:39:00.020Z,12.40
2023-05-16T02:41:27.947Z,12.45
2023-05-16T02:43:55.936Z,12.44
2023-05-16T02:46:28.673Z,12.44
2023-05-16T02:48:58.591Z,12.41
2023-05-16T02:51:27.974Z,12.41
2023-05-16T02:53:57.042Z,12.39
2023-05-16T02:56:25.037Z,12.38
2023-05-16T02:58:54.754Z,12.36
2023-05-16T03:01:22.741Z,12.36
2023-05-16T03:03:51.371Z,12.35
2023-05-16T03:06:20.889Z,12.33
2023-05-16T03:08:48.910Z,12.33
2023-05-16T03:11:19.136Z,12.33
2023-05-16T03:13:46.917Z,12.32
2023-05-16T03:16:15.759Z,12.30
2023-05-16T03:18:43.866Z,12.28
2023-05-16T03:21:11.750Z,12.26
2023-05-16T03:23:40.904Z,12.26
2023-05-16T03:26:08.765Z,12.24
2023-05-16T03:28:36.662Z,12.23
2023-05-16T03:31:04.520Z,12.21
2023-05-16T03:33:32.434Z,12.20
2023-05-16T03:36:00.468Z,12.19
2023-05-16T03:38:28.612Z,12.16
2023-05-16T03:40:57.806Z,12.15
2023-05-16T03:43:25.807Z,12.15
2023-05-16T03:45:53.844Z,12.15
2023-05-16T03:48:21.760Z,12.14
2023-05-16T03:50:49.546Z,12.13
2023-05-16T03:53:17.446Z,12.12
2023-05-16T03:55:48.107Z,12.11
2023-05-16T03:58:18.047Z,12.09
2023-05-16T04:00:46.859Z,12.08
2023-05-16T04:03:14.878Z,12.06
2023-05-16T04:05:42.746Z,11.95
2023-05-16T04:08:10.814Z,12.04
2023-05-16T04:10:38.795Z,12.03
2023-05-16T04:13:06.552Z,12.01
2023-05-16T04:15:35.754Z,12.01
2023-05-16T04:18:04.308Z,11.98
2023-05-16T04:20:33.044Z,11.97
2023-05-16T04:23:01.036Z,11.98
2023-05-16T04:25:29.145Z,11.97
2023-05-16T04:27:57.322Z,11.96
2023-05-16T04:30:25.331Z,11.95
2023-05-16T04:32:54.551Z,11.92
2023-05-16T04:35:23.318Z,11.90
2023-05-16T04:37:51.213Z,11.90
2023-05-16T04:40:19.102Z,11.89
2023-05-16T04:42:46.920Z,11.87
2023-05-16T04:45:14.691Z,11.85
2023-05-16T04:47:42.670Z,11.83
2023-05-16T04:50:12.385Z,11.81
2023-05-16T04:52:40.249Z,11.80
2023-05-16T04:55:09.302Z,11.79
2023-05-16T04:57:37.309Z,11.79
2023-05-16T05:00:08.263Z,11.77
2023-05-16T05:02:36.251Z,11.77
2023-05-16T05:05:04.361Z,11.78
2023-05-16T05:07:34.543Z,11.78
2023-05-16T05:10:02.380Z,11.79
2023-05-16T05:12:30.143Z,11.79
2023-05-16T05:14:58.513Z,11.79
2023-05-16T05:17:26.525Z,11.81
2023-05-16T05:19:54.355Z,11.82
2023-05-16T05:22:22.191Z,11.84
2023-05-16T05:24:51.859Z,11.84
2023-05-16T05:27:19.801Z,11.88
2023-05-16T05:29:47.651Z,11.84
2023-05-16T05:32:15.496Z,11.93
2023-05-16T05:34:43.501Z,11.98
2023-05-16T05:37:11.550Z,11.99
2023-05-16T05:39:39.454Z,12.03
2023-05-16T05:42:09.122Z,12.04
2023-05-16T05:44:37.890Z,12.06
2023-05-16T05:47:06.734Z,12.08
2023-05-16T05:49:35.893Z,12.00
2023-05-16T05:52:03.975Z,12.08
2023-05-16T05:54:32.043Z,12.06
2023-05-16T05:57:00.102Z,12.09
2023-05-16T05:59:29.325Z,12.09
2023-05-16T06:01:58.030Z,12.08
2023-05-16T06:04:25.901Z,12.08
2023-05-16T06:06:53.759Z,12.07
2023-05-16T06:09:22.625Z,12.07
2023-05-16T06:11:51.159Z,11.98
2023-05-16T06:14:19.059Z,12.11
2023-05-16T06:16:48.348Z,12.13
2023-05-16T06:19:16.557Z,12.14
2023-05-16T06:21:44.838Z,12.16
2023-05-16T06:24:12.774Z,12.19
2023-05-16T06:26:40.593Z,12.24
2023-05-16T06:29:08.908Z,12.21
2023-05-16T06:31:36.797Z,12.32
2023-05-16T06:34:06.127Z,12.36
2023-05-16T06:36:34.067Z,12.40
2023-05-16T06:39:01.868Z,12.33
2023-05-16T06:41:29.935Z,12.42
2023-05-16T06:43:57.886Z,12.36
2023-05-16T06:46:26.323Z,12.46
2023-05-16T06:48:54.263Z,12.39
2023-05-16T06:51:23.785Z,12.50
2023-05-16T06:53:51.676Z,12.53
2023-05-16T06:56:19.514Z,12.53
2023-05-16T06:58:47.928Z,12.51
2023-05-16T07:01:15.805Z,12.52
2023-05-16T07:03:44.331Z,12.52
2023-05-16T07:06:12.340Z,12.53
2023-05-16T07:08:41.883Z,12.53
2023-05-16T07:11:11.547Z,12.53
2023-05-16T07:13:39.536Z,12.57
2023-05-16T07:16:08.591Z,12.50
2023-05-16T07:18:36.786Z,12.60
2023-05-16T07:21:04.824Z,12.50
2023-05-16T07:23:34.743Z,12.56
2023-05-16T07:26:04.290Z,12.53
2023-05-16T07:28:32.219Z,12.50
2023-05-16T07:31:00.607Z,12.49
2023-05-16T07:33:28.565Z,12.47
2023-05-16T07:36:07.890Z,12.47
2023-05-16T07:38:36.315Z,12.46
2023-05-16T07:41:06.298Z,12.46
2023-05-16T07:43:35.337Z,12.45
2023-05-16T07:46:03.548Z,12.45
2023-05-16T07:48:31.739Z,12.44
2023-05-16T07:50:59.633Z,12.43
2023-05-16T07:53:27.427Z,12.44
2023-05-16T07:55:55.349Z,12.44
2023-05-16T07:58:24.622Z,12.45
2023-05-16T08:00:52.536Z,12.47
2023-05-16T08:03:20.826Z,12.51
2023-05-16T08:05:49.077Z,12.57
2023-05-16T08:08:16.998Z,12.66
2023-05-16T08:10:45.167Z,12.95
2023-05-16T08:13:13.132Z,13.23
2023-05-16T08:15:42.944Z,13.50
2023-05-16T08:18:14.815Z,13.47
2023-05-16T08:20:43.034Z,13.31
2023-05-16T08:23:10.889Z,13.29
2023-05-16T08:25:38.934Z,13.25
2023-05-16T08:28:06.861Z,13.13
2023-05-16T08:30:34.968Z,13.05
2023-05-16T08:33:05.537Z,12.96
2023-05-16T08:35:35.361Z,12.92
2023-05-16T08:38:04.071Z,12.88
2023-05-16T08:40:32.184Z,12.84
2023-05-16T08:43:00.250Z,12.77
2023-05-16T08:45:28.628Z,12.75
2023-05-16T08:47:57.437Z,12.85
2023-05-16T08:50:27.688Z,12.86
2023-05-16T08:52:55.690Z,12.89
2023-05-16T08:55:24.338Z,12.89
2023-05-16T08:57:52.656Z,12.90
2023-05-16T09:00:21.740Z,12.91
2023-05-16T09:02:50.133Z,12.92
2023-05-16T09:05:18.929Z,12.94
2023-05-16T09:07:48.148Z,12.95
2023-05-16T09:10:16.435Z,12.97
2023-05-16T09:12:46.763Z,12.98
2023-05-16T09:15:14.664Z,13.00
2023-05-16T09:17:45.482Z,13.02
2023-05-16T09:20:15.194Z,13.02
2023-05-16T09:22:53.875Z,13.01
2023-05-16T09:25:30.212Z,13.02
2023-05-16T09:28:00.312Z,13.02
2023-05-16T09:30:30.787Z,13.03
2023-05-16T09:33:01.349Z,13.04
2023-05-16T09:38:01.377Z,13.10
2023-05-16T09:40:29.564Z,13.11
2023-05-16T09:43:06.005Z,13.10
2023-05-16T09:45:34.667Z,13.10
2023-05-16T09:48:05.521Z,13.11
2023-05-16T09:50:35.283Z,13.13
2023-05-16T09:53:05.674Z,13.11
2023-05-16T09:55:33.892Z,13.14
2023-05-16T09:58:01.819Z,13.11
2023-05-16T10:00:31.279Z,13.14
2023-05-16T10:03:02.162Z,13.13
2023-05-16T10:05:32.741Z,13.13
2023-05-16T10:08:01.326Z,13.15
2023-05-16T10:10:31.619Z,13.15
2023-05-16T10:13:02.464Z,13.16
2023-05-16T10:15:30.862Z,13.14
2023-05-16T10:18:02.174Z,13.08
2023-05-16T10:20:30.705Z,13.18
2023-05-16T10:23:00.076Z,13.19
2023-05-16T10:25:33.480Z,13.19
2023-05-16T10:28:01.809Z,13.18
2023-05-16T10:30:29.824Z,13.18
2023-05-16T10:32:59.016Z,13.19
2023-05-16T10:35:27.344Z,13.17
2023-05-16T10:37:56.224Z,13.19
2023-05-16T10:40:25.018Z,13.22
2023-05-16T10:42:58.303Z,13.29
2023-05-16T10:45:26.598Z,13.33
2023-05-16T10:47:56.294Z,13.36
2023-05-16T10:50:39.220Z,13.31
2023-05-16T10:53:14.963Z,13.44
2023-05-16T10:55:46.655Z,13.45
2023-05-16T10:58:20.442Z,13.47
2023-05-16T11:00:49.484Z,13.49
2023-05-16T11:03:26.130Z,13.53
2023-05-16T11:05:54.317Z,13.57
2023-05-16T11:08:22.294Z,13.54
2023-05-16T11:10:50.217Z,13.65
2023-05-16T11:13:25.977Z,13.68
2023-05-16T11:16:28.779Z,13.65
2023-05-16T11:19:05.616Z,13.74
2023-05-16T11:22:17.158Z,13.77
2023-05-16T11:24:56.901Z,13.75
2023-05-16T11:27:27.887Z,13.74
2023-05-16T11:30:03.240Z,13.77
2023-05-16T11:32:33.094Z,13.78
2023-05-16T11:35:01.482Z,13.78
2023-05-16T11:37:29.678Z,13.80
2023-05-16T11:40:00.588Z,13.81
2023-05-16T11:42:31.504Z,13.83
2023-05-16T11:45:07.794Z,13.79
2023-05-16T11:47:38.149Z,13.86
2023-05-16T11:50:07.989Z,13.88
2023-05-16T11:52:35.927Z,13.74
2023-05-16T11:55:06.402Z,13.92
2023-05-16T11:57:34.232Z,13.92
2023-05-16T12:00:08.108Z,13.92
2023-05-16T12:02:37.624Z,13.92
2023-05-16T12:05:10.050Z,13.91
2023-05-16T12:07:38.598Z,13.89
2023-05-16T12:10:07.736Z,13.89
2023-05-16T12:12:35.857Z,13.88
2023-05-16T12:15:04.257Z,13.89
2023-05-16T12:17:32.494Z,13.93
2023-05-16T12:20:02.258Z,13.89
2023-05-16T12:22:30.223Z,13.97
2023-05-16T12:25:00.413Z,13.95
2023-05-16T12:27:28.408Z,14.05
2023-05-16T12:29:59.814Z,14.09
2023-05-16T12:32:27.821Z,14.02
2023-05-16T12:34:56.324Z,14.07
2023-05-16T12:37:25.922Z,14.04
2023-05-16T12:40:01.155Z,14.06
2023-05-16T12:42:28.986Z,14.07
2023-05-16T12:44:57.150Z,14.10
2023-05-16T12:47:24.998Z,14.05
2023-05-16T12:49:54.381Z,14.13
2023-05-16T12:52:23.258Z,14.14
2023-05-16T12:54:52.608Z,14.12
2023-05-16T12:57:21.313Z,14.10
2023-05-16T12:59:50.944Z,14.05
2023-05-16T13:02:19.442Z,14.05
2023-05-16T13:04:47.562Z,14.08
2023-05-16T13:07:15.526Z,14.07
2023-05-16T13:09:43.460Z,14.07
2023-05-16T13:12:14.286Z,14.07
2023-05-16T13:14:43.718Z,14.08
2023-05-16T13:17:12.703Z,14.06
2023-05-16T13:19:40.913Z,14.09
2023-05-16T13:22:08.748Z,14.11
2023-05-16T13:24:36.560Z,14.12
2023-05-16T13:27:04.517Z,14.11
2023-05-16T13:29:33.760Z,14.10
2023-05-16T13:32:01.615Z,14.10
2023-05-16T13:34:29.519Z,14.14
2023-05-16T13:36:57.519Z,14.17
2023-05-16T13:39:26.301Z,14.20
2023-05-16T13:41:54.295Z,14.19
2023-05-16T13:44:22.644Z,14.20
2023-05-16T13:46:52.007Z,14.19
2023-05-16T13:49:19.876Z,14.17
2023-05-16T13:51:48.265Z,14.14
2023-05-16T13:54:16.420Z,14.13
2023-05-16T13:56:46.409Z,14.15
2023-05-16T13:59:18.530Z,14.17
2023-05-16T14:01:56.622Z,14.15
2023-05-16T14:04:24.448Z,14.13
2023-05-16T14:06:52.361Z,14.14
2023-05-16T14:09:20.155Z,14.16
2023-05-16T14:11:47.990Z,14.18
2023-05-16T14:14:15.838Z,14.20
2023-05-16T14:16:46.026Z,14.22
2023-05-16T14:19:18.109Z,14.24
2023-05-16T14:21:47.161Z,14.26
2023-05-16T14:24:14.980Z,14.19
2023-05-16T14:26:42.837Z,14.30
2023-05-16T14:29:10.805Z,14.31
2023-05-16T14:31:38.686Z,14.32
2023-05-16T14:34:06.938Z,14.34
2023-05-16T14:36:36.459Z,14.34
2023-05-16T14:39:04.477Z,14.34
2023-05-16T14:41:32.305Z,14.34
2023-05-16T14:44:00.161Z,14.37
2023-05-16T14:46:28.077Z,14.37
2023-05-16T14:48:55.974Z,14.29
2023-05-16T14:51:24.057Z,14.35
2023-05-16T14:53:53.330Z,14.36
2023-05-16T14:56:21.244Z,14.36
2023-05-16T14:58:49.056Z,14.33
2023-05-16T15:01:17.578Z,14.31
2023-05-16T15:03:54.430Z,14.28
2023-05-16T15:06:24.355Z,14.28
2023-05-16T15:08:53.723Z,14.25
2023-05-16T15:11:21.862Z,14.24
2023-05-16T15:13:49.799Z,14.19
2023-05-16T15:16:17.744Z,14.27
2023-05-16T15:18:46.078Z,14.29
2023-05-16T15:21:13.905Z,14.31
2023-05-16T15:23:42.595Z,14.32
2023-05-16T15:26:11.832Z,14.31
2023-05-16T15:28:39.909Z,14.33
2023-05-16T15:31:07.700Z,14.35
2023-05-16T15:33:35.605Z,14.34
2023-05-16T15:36:03.449Z,14.39
2023-05-16T15:38:31.292Z,14.38
2023-05-16T15:41:14.024Z,14.28
2023-05-16T15:43:47.752Z,14.38
2023-05-16T15:46:15.948Z,14.39
2023-05-16T15:48:44.887Z,14.38
2023-05-16T15:51:13.913Z,14.37
2023-05-16T15:53:41.974Z,14.36
2023-05-16T15:56:10.492Z,14.36
2023-05-16T15:58:38.517Z,14.36
2023-05-16T16:01:07.809Z,14.34
2023-05-16T16:03:35.825Z,14.36
2023-05-16T16:06:04.017Z,14.34
2023-05-16T16:08:31.876Z,14.34
2023-05-16T16:10:59.667Z,14.34
2023-05-16T16:13:27.648Z,14.33
2023-05-16T16:15:55.767Z,14.32
2023-05-16T16:18:25.046Z,14.32
2023-05-16T16:20:53.077Z,14.32
2023-05-16T16:23:21.851Z,14.30
2023-05-16T16:25:50.296Z,14.28
2023-05-16T16:28:19.125Z,14.24
2023-05-16T16:30:50.387Z,14.28
2023-05-16T16:33:18.465Z,14.29
2023-05-16T16:35:48.205Z,14.27
2023-05-16T16:38:16.376Z,14.27
2023-05-16T16:40:44.325Z,14.28
2023-05-16T16:43:12.184Z,14.27
2023-05-16T16:45:40.030Z,14.27
2023-05-16T16:48:09.110Z,14.28
2023-05-16T16:50:37.079Z,14.29
2023-05-16T16:53:06.396Z,14.29
2023-05-16T16:55:34.402Z,14.32
2023-05-16T16:58:02.943Z,14.31
2023-05-16T17:00:31.472Z,14.23
2023-05-16T17:02:59.472Z,14.30
2023-05-16T17:05:27.538Z,14.29
2023-05-16T17:07:55.510Z,14.29
2023-05-16T17:10:24.766Z,14.32
2023-05-16T17:12:52.606Z,14.33
2023-05-16T17:15:20.503Z,14.36
2023-05-16T17:17:49.298Z,14.36
2023-05-16T17:20:17.455Z,14.36
2023-05-16T17:22:46.188Z,14.31
2023-05-16T17:25:14.026Z,14.29
2023-05-16T17:27:44.252Z,14.29
2023-05-16T17:30:12.786Z,14.29
2023-05-16T17:32:40.759Z,14.27
2023-05-16T17:35:12.291Z,14.30
2023-05-16T17:37:41.507Z,14.32
2023-05-16T17:40:16.299Z,14.32
2023-05-16T17:42:45.891Z,14.32
2023-05-16T17:45:14.907Z,14.31
2023-05-16T17:47:43.289Z,14.31
2023-05-16T17:50:12.132Z,14.32
2023-05-16T17:52:40.529Z,14.31
2023-05-16T17:55:10.563Z,14.31
2023-05-16T17:57:38.773Z,14.28
2023-05-16T18:00:09.764Z,14.29
2023-05-16T18:02:38.727Z,14.31
2023-05-16T18:05:07.837Z,14.23
2023-05-16T18:07:35.807Z,14.29
2023-05-16T18:10:03.686Z,14.29
2023-05-16T18:12:31.611Z,14.28
2023-05-16T18:14:59.442Z,14.28
2023-05-16T18:17:28.755Z,14.26
2023-05-16T18:19:56.848Z,14.25
2023-05-16T18:22:24.738Z,14.26
2023-05-16T18:24:52.734Z,14.25
2023-05-16T18:27:20.650Z,14.25
2023-05-16T18:29:48.480Z,14.27
2023-05-16T18:32:16.484Z,14.29
2023-05-16T18:34:45.752Z,14.29
2023-05-16T18:37:13.873Z,14.29
2023-05-16T18:39:43.645Z,14.28
2023-05-16T18:42:11.528Z,14.28
2023-05-16T18:44:39.528Z,14.28
2023-05-16T18:47:08.061Z,14.27
2023-05-16T18:49:39.264Z,14.22
2023-05-16T18:52:09.236Z,14.06
2023-05-16T18:54:37.956Z,14.22
2023-05-16T18:57:07.190Z,14.19
2023-05-16T18:59:36.024Z,14.11
2023-05-16T19:02:04.460Z,14.19
2023-05-16T19:04:32.370Z,14.16
2023-05-16T19:07:02.282Z,14.14
2023-05-16T19:09:33.233Z,14.05
2023-05-16T19:12:01.003Z,14.04
2023-05-16T19:14:28.809Z,14.13
2023-05-16T19:16:56.774Z,14.11
2023-05-16T19:19:25.079Z,14.12
2023-05-16T19:21:53.163Z,14.10
2023-05-16T19:24:21.026Z,14.08
2023-05-16T19:26:50.346Z,14.07
2023-05-16T19:29:19.139Z,14.05
2023-05-16T19:31:47.023Z,14.04
2023-05-16T19:34:15.044Z,14.02
2023-05-16T19:36:42.949Z,14.01
2023-05-16T19:39:10.916Z,13.98
2023-05-16T19:41:38.793Z,13.95
2023-05-16T19:44:08.157Z,13.94
2023-05-16T19:46:36.077Z,13.92
2023-05-16T19:49:04.234Z,13.92
2023-05-16T19:51:41.333Z,13.89
2023-05-16T19:54:10.180Z,13.87
2023-05-16T19:56:38.041Z,13.86
2023-05-16T19:59:07.237Z,13.85
2023-05-16T20:01:35.075Z,13.84
2023-05-16T20:04:04.876Z,13.81
2023-05-16T20:06:33.380Z,13.80
2023-05-16T20:09:01.323Z,13.78
2023-05-16T20:11:29.409Z,13.79
2023-05-16T20:13:59.492Z,13.80
2023-05-16T20:16:28.685Z,13.79
2023-05-16T20:18:56.555Z,13.79
2023-05-16T20:21:24.566Z,13.77
2023-05-16T20:23:52.448Z,13.76
2023-05-16T20:26:21.452Z,13.74
2023-05-16T20:28:49.340Z,13.71
2023-05-16T20:31:17.305Z,13.71
2023-05-16T20:33:46.927Z,13.71
2023-05-16T20:36:14.904Z,13.69
2023-05-16T20:38:42.767Z,13.70
2023-05-16T20:41:10.973Z,13.67
2023-05-16T20:43:38.992Z,13.66
2023-05-16T20:46:06.928Z,13.62
2023-05-16T20:48:34.796Z,13.61
2023-05-16T20:51:04.074Z,13.60
2023-05-16T20:53:31.979Z,13.59
2023-05-16T20:55:59.822Z,13.58
2023-05-16T20:58:27.828Z,13.57
2023-05-16T21:00:55.807Z,13.55
2023-05-16T21:03:23.726Z,13.54
2023-05-16T21:05:51.730Z,13.52
2023-05-16T21:08:21.016Z,13.52
2023-05-16T21:10:48.825Z,13.51
2023-05-16T21:13:16.600Z,13.52
2023-05-16T21:15:44.401Z,13.50
2023-05-16T21:18:12.320Z,13.49
2023-05-16T21:20:40.220Z,13.49
2023-05-16T21:23:08.013Z,13.47
2023-05-16T21:25:37.633Z,13.47
2023-05-16T21:28:06.052Z,13.47
2023-05-16T21:30:33.890Z,13.47
2023-05-16T21:33:02.179Z,13.45
2023-05-16T21:35:30.447Z,13.46
2023-05-16T21:37:58.459Z,13.46
2023-05-16T21:40:26.441Z,13.45
2023-05-16T21:42:55.972Z,13.45
2023-05-16T21:45:24.027Z,13.45
2023-05-16T21:47:51.898Z,13.44
2023-05-16T21:50:19.970Z,13.45
2023-05-16T21:52:47.929Z,13.34
2023-05-16T21:55:15.913Z,13.32
2023-05-16T21:57:43.894Z,13.41
2023-05-16T22:00:14.763Z,13.39
2023-05-16T22:02:42.818Z,13.36
2023-05-16T22:05:11.218Z,13.37
2023-05-16T22:07:39.166Z,13.36
2023-05-16T22:10:08.305Z,13.25
2023-05-16T22:12:36.166Z,13.32
2023-05-16T22:15:04.444Z,13.31
2023-05-16T22:17:33.727Z,13.30
2023-05-16T22:20:02.680Z,13.20
2023-05-16T22:22:30.488Z,13.28
2023-05-16T22:24:58.377Z,13.26
2023-05-16T22:27:26.474Z,13.25
2023-05-16T22:29:54.299Z,13.25
2023-05-16T22:32:22.327Z,13.23
2023-05-16T22:34:52.805Z,13.23
2023-05-16T22:37:20.653Z,13.21
2023-05-16T22:39:48.738Z,13.20
2023-05-16T22:42:16.604Z,13.20
2023-05-16T22:44:44.406Z,13.18
2023-05-16T22:47:12.207Z,13.17
2023-05-16T22:49:40.078Z,13.16
2023-05-16T22:52:09.655Z,13.14
2023-05-16T22:54:37.541Z,13.14
2023-05-16T22:57:05.644Z,13.02
2023-05-16T22:59:34.196Z,13.09
2023-05-16T23:02:02.001Z,13.08
2023-05-16T23:04:29.813Z,13.04
2023-05-16T23:06:57.676Z,13.06
2023-05-16T23:09:27.014Z,13.06
2023-05-16T23:11:55.013Z,13.04
2023-05-16T23:14:22.869Z,13.04
2023-05-16T23:16:50.705Z,13.04
2023-05-16T23:19:18.734Z,13.06
2023-05-16T23:21:46.801Z,13.04
2023-05-16T23:24:14.770Z,13.03
2023-05-16T23:26:44.038Z,13.03
2023-05-16T23:29:12.067Z,13.02
2023-05-16T23:31:40.204Z,13.00
2023-05-16T23:34:08.352Z,12.99
2023-05-16T23:36:36.269Z,12.97
2023-05-16T23:39:04.136Z,12.95
2023-05-16T23:41:32.065Z,12.91
2023-05-16T23:44:01.268Z,12.92
2023-05-16T23:54:04.824Z,12.94
2023-05-16T23:56:32.913Z,12.94
2023-05-16T23:59:02.515Z,12.93
